Search for airport 
image banner adimage banner adimage banner ad
image banner ad

17CL - Las Trancas

Located in Davenport, United States

ICAO - 17CL, IATA -

Data provided by Airmate  

General information

Coordinates: N37°5'17" W122°16'25"
Elevation is 125 feet MSL.
Magnetic variation is 16° East
View others Airports in California

Operational data

Special qualification required
Current time UTC:
Current local time:
Weather at : KNUQ - Moffett Federal Afld ( 42 km )
METAR: KNUQ 240855Z AUTO 03004KT 10SM OVC019 16/13 A2999 RMK AO2
View NOTAMs / SUP AIP / TFR affecting this airport [VIEW]
Communications frequencies: [VIEW]

Runways:

RWY identifierQFULength (ft)Width (ft)SurfaceLDA (ft)
14130030GRAVEL
32130030GRAVEL

Airport contact information

Address: Davenport United States

Satellite view of 17CL